Irish Sea — WDB5555 — position and weather

sailwx.info

Track history (hours):
 
Tides and Currents Weather Stations Pressure Air Temp Water Temp Dewpoint Dewpoint Depression Visibility Wind Speed Wind Dir Waves Ship Positions

Irish Sea

Owner: Kirby Offshore Marine, LLC, Staten Island, NY. More information available from US FCC via Universal Licensing System and Coast Guard Vessel Documentation Center.

Last reported at 2016-Feb-07 18:33 UTC. Time now 2016-Feb-09 20:40 UTC.
Position N 39°49' W 073°58'.

Length 156 m; draft 6.8 m.

Type: Ship (hazmat cat B). MMSI: 366910920.

Date/timePositionNaut miles runAvg speedWind from/ knotsBaromVisibWave heightAir tempDewpointWater temp
2016-Feb-07 18:33N 39°49' W 073°58'8 8.1
2016-Feb-07 17:33N 39°41' W 074°00'9 8.1
2016-Feb-07 16:30N 39°34' W 074°05'49 8.2
2016-Feb-07 10:32N 38°56' W 074°45'8 7.5
2016-Feb-07 09:27N 38°50' W 074°52'6 6.9
2016-Feb-07 08:33N 38°48' W 074°59'7 6.6
2016-Feb-07 07:33N 38°53' W 075°05'8 8.3
2016-Feb-07 06:33N 39°01' W 075°09'9 9.3
2016-Feb-07 05:33N 39°09' W 075°15'10 9.7
2016-Feb-07 04:33N 39°17' W 075°22'9 8.6
2016-Feb-07 03:33N 39°24' W 075°29'7 6.8
2016-Feb-07 02:33N 39°30' W 075°34'5 5.4
2016-Feb-07 01:33N 39°35' W 075°35'1 0.6
2016-Feb-07 00:31N 39°35' W 075°36'0 0.0
2016-Feb-06 23:31N 39°35' W 075°36'0 0.0
2016-Feb-06 22:31N 39°35' W 075°36'0 0.0
2016-Feb-06 21:31N 39°35' W 075°36'0 0.0
2016-Feb-06 20:31N 39°35' W 075°36'0 0.0
2016-Feb-06 19:31N 39°35' W 075°36'0 0.0
2016-Feb-06 18:31N 39°35' W 075°36'0 0.0
2016-Feb-06 17:31N 39°35' W 075°36'0 0.0
2016-Feb-06 16:31N 39°35' W 075°36'0 0.0
2016-Feb-06 15:31N 39°35' W 075°36'0 0.0
2016-Feb-06 14:31N 39°35' W 075°36'0 0.0
2016-Feb-06 13:31N 39°35' W 075°36'0 0.0
2016-Feb-06 12:31N 39°35' W 075°36'0 0.0
2016-Feb-06 11:31N 39°35' W 075°36'0 0.0
2016-Feb-06 10:31N 39°35' W 075°36'0 0.0
2016-Feb-06 09:31N 39°35' W 075°36'0 0.0
2016-Feb-06 08:34N 39°35' W 075°36'0 0.0
2016-Feb-06 07:30N 39°35' W 075°36'0 0.0
2016-Feb-06 06:33N 39°35' W 075°36'0 0.0
2016-Feb-06 05:30N 39°35' W 075°36'0 0.0
2016-Feb-06 04:33N 39°35' W 075°36'0 0.0
2016-Feb-06 03:33N 39°35' W 075°36'0 0.0
2016-Feb-06 02:33N 39°35' W 075°36'1 0.9
2016-Feb-06 01:33N 39°35' W 075°35'8 8.4
2016-Feb-06 00:34N 39°26' W 075°33'1110.6
2016-Feb-05 23:33N 39°18' W 075°23'30 9.9
2016-Feb-05 20:33N 38°53' W 075°04'8 7.7
2016-Feb-05 19:33N 38°49' W 074°55'57 9.5
2016-Feb-05 13:33N 39°33' W 074°09'10 9.9
2016-Feb-05 12:33N 39°42' W 074°02'55 8.7
2016-Feb-05 06:12N 40°37' W 074°03'2 3.1
2016-Feb-05 05:33N 40°39' W 074°03'5 5.0
2016-Feb-05 04:27N 40°39' W 074°10'0 0.0
2016-Feb-05 03:31N 40°39' W 074°10'0 0.0
2016-Feb-05 02:33N 40°39' W 074°10'0 0.0
2016-Feb-05 01:27N 40°39' W 074°10'5 6.1
2016-Feb-05 00:34N 40°39' W 074°03'2 2.1
2016-Feb-04 23:33N 40°39' W 074°05'0 0.0
2016-Feb-04 22:32N 40°39' W 074°05'0 0.0
2016-Feb-04 21:31N 40°39' W 074°05'0 0.0
2016-Feb-04 20:28N 40°39' W 074°05'0 0.0
2016-Feb-04 19:33N 40°39' W 074°05'1 0.6
2016-Feb-04 18:33N 40°39' W 074°05'2 1.5
2016-Feb-04 17:33N 40°39' W 074°03'1 0.6
2016-Feb-04 16:33N 40°40' W 074°03'8 0.4
2016-Feb-03 19:32N 40°47' W 073°59'10 9.7
2016-Feb-03 18:33N 40°38' W 074°03'  
2016-Jan-30 22:26N 40°36' W 074°01'0 0.0
2016-Jan-30 10:07N 40°36' W 074°01'0 0.0
2016-Jan-30 09:31N 40°36' W 074°01'0 0.0
2016-Jan-30 03:07N 40°36' W 074°01'2 0.2
2016-Jan-29 19:15N 40°37' W 074°03'6 9.0
2016-Jan-29 18:33N 40°43' W 073°58'3 0.2
2016-Jan-28 23:22N 40°46' W 073°57'4 4.9
2016-Jan-28 22:34N 40°42' W 073°60'3 2.8
2016-Jan-28 21:32N 40°40' W 074°02'0 0.0
2016-Jan-28 20:32N 40°40' W 074°02'0 0.0
2016-Jan-28 19:29N 40°40' W 074°02'  
Track history (hours):
 
Tides and Currents Weather Stations Pressure Air Temp Water Temp Dewpoint Dewpoint Depression Visibility Wind Speed Wind Dir Waves Ship Positions

Irish Sea

Owner: Kirby Offshore Marine, LLC, Staten Island, NY. More information available from US FCC via Universal Licensing System and Coast Guard Vessel Documentation Center.

Last reported at 2016-Feb-07 18:33 UTC. Time now 2016-Feb-09 20:40 UTC.
Position N 39°49' W 073°58'.

Length 156 m; draft 6.8 m.

Type: Ship (hazmat cat B). MMSI: 366910920.

Date/timePositionNaut miles runAvg speedWind from/ knotsBaromVisibWave heightAir tempDewpointWater temp
2016-Feb-07 18:33N 39°49' W 073°58'8 8.1
2016-Feb-07 17:33N 39°41' W 074°00'9 8.1
2016-Feb-07 16:30N 39°34' W 074°05'49 8.2
2016-Feb-07 10:32N 38°56' W 074°45'8 7.5
2016-Feb-07 09:27N 38°50' W 074°52'6 6.9
2016-Feb-07 08:33N 38°48' W 074°59'7 6.6
2016-Feb-07 07:33N 38°53' W 075°05'8 8.3
2016-Feb-07 06:33N 39°01' W 075°09'9 9.3
2016-Feb-07 05:33N 39°09' W 075°15'10 9.7
2016-Feb-07 04:33N 39°17' W 075°22'9 8.6
2016-Feb-07 03:33N 39°24' W 075°29'7 6.8
2016-Feb-07 02:33N 39°30' W 075°34'5 5.4
2016-Feb-07 01:33N 39°35' W 075°35'1 0.6
2016-Feb-07 00:31N 39°35' W 075°36'0 0.0
2016-Feb-06 23:31N 39°35' W 075°36'0 0.0
2016-Feb-06 22:31N 39°35' W 075°36'0 0.0
2016-Feb-06 21:31N 39°35' W 075°36'0 0.0
2016-Feb-06 20:31N 39°35' W 075°36'0 0.0
2016-Feb-06 19:31N 39°35' W 075°36'0 0.0
2016-Feb-06 18:31N 39°35' W 075°36'0 0.0
2016-Feb-06 17:31N 39°35' W 075°36'0 0.0
2016-Feb-06 16:31N 39°35' W 075°36'0 0.0
2016-Feb-06 15:31N 39°35' W 075°36'0 0.0
2016-Feb-06 14:31N 39°35' W 075°36'0 0.0
2016-Feb-06 13:31N 39°35' W 075°36'0 0.0
2016-Feb-06 12:31N 39°35' W 075°36'0 0.0
2016-Feb-06 11:31N 39°35' W 075°36'0 0.0
2016-Feb-06 10:31N 39°35' W 075°36'0 0.0
2016-Feb-06 09:31N 39°35' W 075°36'0 0.0
2016-Feb-06 08:34N 39°35' W 075°36'0 0.0
2016-Feb-06 07:30N 39°35' W 075°36'0 0.0
2016-Feb-06 06:33N 39°35' W 075°36'0 0.0
2016-Feb-06 05:30N 39°35' W 075°36'0 0.0
2016-Feb-06 04:33N 39°35' W 075°36'0 0.0
2016-Feb-06 03:33N 39°35' W 075°36'0 0.0
2016-Feb-06 02:33N 39°35' W 075°36'1 0.9
2016-Feb-06 01:33N 39°35' W 075°35'8 8.4
2016-Feb-06 00:34N 39°26' W 075°33'1110.6
2016-Feb-05 23:33N 39°18' W 075°23'30 9.9
2016-Feb-05 20:33N 38°53' W 075°04'8 7.7
2016-Feb-05 19:33N 38°49' W 074°55'57 9.5
2016-Feb-05 13:33N 39°33' W 074°09'10 9.9
2016-Feb-05 12:33N 39°42' W 074°02'55 8.7
2016-Feb-05 06:12N 40°37' W 074°03'2 3.1
2016-Feb-05 05:33N 40°39' W 074°03'5 5.0
2016-Feb-05 04:27N 40°39' W 074°10'0 0.0
2016-Feb-05 03:31N 40°39' W 074°10'0 0.0
2016-Feb-05 02:33N 40°39' W 074°10'0 0.0
2016-Feb-05 01:27N 40°39' W 074°10'5 6.1
2016-Feb-05 00:34N 40°39' W 074°03'2 2.1
2016-Feb-04 23:33N 40°39' W 074°05'0 0.0
2016-Feb-04 22:32N 40°39' W 074°05'0 0.0
2016-Feb-04 21:31N 40°39' W 074°05'0 0.0
2016-Feb-04 20:28N 40°39' W 074°05'0 0.0
2016-Feb-04 19:33N 40°39' W 074°05'1 0.6
2016-Feb-04 18:33N 40°39' W 074°05'2 1.5
2016-Feb-04 17:33N 40°39' W 074°03'1 0.6
2016-Feb-04 16:33N 40°40' W 074°03'8 0.4
2016-Feb-03 19:32N 40°47' W 073°59'10 9.7
2016-Feb-03 18:33N 40°38' W 074°03'  
2016-Jan-30 22:26N 40°36' W 074°01'0 0.0
2016-Jan-30 10:07N 40°36' W 074°01'0 0.0
2016-Jan-30 09:31N 40°36' W 074°01'0 0.0
2016-Jan-30 03:07N 40°36' W 074°01'2 0.2
2016-Jan-29 19:15N 40°37' W 074°03'6 9.0
2016-Jan-29 18:33N 40°43' W 073°58'3 0.2
2016-Jan-28 23:22N 40°46' W 073°57'4 4.9
2016-Jan-28 22:34N 40°42' W 073°60'3 2.8
2016-Jan-28 21:32N 40°40' W 074°02'0 0.0
2016-Jan-28 20:32N 40°40' W 074°02'0 0.0
2016-Jan-28 19:29N 40°40' W 074°02'  

Dump ship's entire track history